GCLP

Gran Canaria Airport

Gran Canaria Island, Spain
METAR GCLP 151930Z 36011KT 9999 FEW025 BKN035 20/14 Q1023 NOSIG
Observed Flight Rules
Dec-15 @ 19:30 UTC (25 minutes ago) Visual Flight Rules
Wind Visibility Clouds
360° at 11 knots 10,000+ meters
  • Few at 2,500' AGL
  • Broken at 3,500' AGL
Temperatures Readings
Current 20°C / 68°F
Dewpoint 14°C / 57°F
Humidity 69%
Altimeter 30.21" Hg
Pressure 1023 hPa
Elevation 25
METAR GCLP 151930Z 36011KT 9999 FEW025 BKN035 20/14 Q1023 NOSIG
Observed Flight Rules
Dec-15 @ 19:30 UTC
(25 minutes ago)
VFR
Wind Visibility
360° at 11 knots 10,000+ meters
Clouds
  • Few at 2,500' AGL
  • Broken at 3,500' AGL
Temperature Dewpoint
20°C / 68°F 14°C / 57°F
Humidity Altimeter Pressure
69% 30.21" Hg 1023 hPa